Time,TemperatureF,DewpointF,PressureIn,WindDirection,WindDirectionDegrees,WindSpeedMPH,WindSpeedGustMPH,Humidity,HourlyPrecipIn,Conditions,Clouds,dailyrainin,SoftwareType,DateUTC
2013-04-18 00:02:00,28.2,-6.7,30.21,North,0,8.7,8.7,21,-99.99,,---,-99.99,VWS V14.01,2013-04-18 07:02:00,
2013-04-18 00:07:00,28.4,-6.5,30.21,North,353,8.3,8.3,21,-99.99,,---,-99.99,VWS V14.01,2013-04-18 07:07:00,
2013-04-18 00:12:00,28.6,-7.4,30.21,NNW,344,10.5,13.2,20,-99.99,,---,-99.99,VWS V14.01,2013-04-18 07:12:00,
2013-04-18 00:17:00,28.9,-7.1,30.21,NNW,343,7.6,8.7,20,-99.99,,---,-99.99,VWS V14.01,2013-04-18 07:17:00,
2013-04-18 00:22:00,28.9,-7.1,30.21,NNW,332,8.3,8.7,20,-99.99,,---,-99.99,VWS V14.01,2013-04-18 07:22:00,
2013-04-18 00:27:00,28.9,-7.1,30.21,NNW,340,10.5,12.8,20,-99.99,,---,-99.99,VWS V14.01,2013-04-18 07:27:00,
2013-04-18 00:32:00,28.6,-7.4,30.21,North,353,12.8,12.8,20,-99.99,,---,-99.99,VWS V14.01,2013-04-18 07:32:00,
2013-04-18 00:37:00,28.6,-7.4,30.21,NNW,345,12.3,13.6,20,-99.99,,---,-99.99,VWS V14.01,2013-04-18 07:37:00,
2013-04-18 00:42:00,28.6,-7.4,30.21,North,353,17.9,17.9,20,-99.99,,---,-99.99,VWS V14.01,2013-04-18 07:42:00,
2013-04-18 00:47:00,28.6,-7.4,30.21,NNW,335,12.8,12.8,20,-99.99,,---,-99.99,VWS V14.01,2013-04-18 07:47:00,
2013-04-18 00:53:00,28.9,-7.1,30.21,North,357,10.5,18.8,20,-99.99,,---,-99.99,VWS V14.01,2013-04-18 07:53:00,
2013-04-18 00:58:00,28.6,-7.4,30.21,NNW,339,8.1,8.1,20,-99.99,,---,-99.99,VWS V14.01,2013-04-18 07:58:00,
2013-04-18 01:03:00,28.8,-7.2,30.21,NNW,340,8.1,8.1,20,-99.99,,---,-99.99,VWS V14.01,2013-04-18 08:03:00,
2013-04-18 01:08:00,28.8,-7.2,30.21,NNW,339,15.4,15.4,20,-99.99,,---,-99.99,VWS V14.01,2013-04-18 08:08:00,
2013-04-18 01:13:00,28.8,-7.2,30.21,NNW,331,11.0,13.2,20,-99.99,,---,-99.99,VWS V14.01,2013-04-18 08:13:00,
2013-04-18 01:18:00,28.2,-6.7,30.21,NNW,333,10.5,15.4,21,-99.99,,---,-99.99,VWS V14.01,2013-04-18 08:18:00,
2013-04-18 01:23:00,28.0,-6.8,30.21,NNW,343,15.4,15.4,21,-99.99,,---,-99.99,VWS V14.01,2013-04-18 08:23:00,
2013-04-18 01:28:00,28.0,-6.8,30.21,North,0,19.7,19.7,21,-99.99,,---,-99.99,VWS V14.01,2013-04-18 08:28:00,
2013-04-18 01:33:00,28.0,-6.8,30.21,NNW,343,15.4,15.4,21,-99.99,,---,-99.99,VWS V14.01,2013-04-18 08:33:00,
2013-04-18 01:38:00,28.0,-6.8,30.21,NNW,327,11.0,11.0,21,-99.99,,---,-99.99,VWS V14.01,2013-04-18 08:38:00,
2013-04-18 01:43:00,27.7,-7.2,30.21,NNW,339,12.8,12.8,21,-99.99,,---,-99.99,VWS V14.01,2013-04-18 08:43:00,
2013-04-18 01:48:00,27.7,-7.2,30.21,NW,316,14.1,14.1,21,-99.99,,---,-99.99,VWS V14.01,2013-04-18 08:48:00,
2013-04-18 01:53:00,27.7,-7.2,30.21,WNW,300,10.5,10.5,21,-99.99,,---,-99.99,VWS V14.01,2013-04-18 08:53:00,
2013-04-18 01:58:00,27.7,-7.2,30.21,WNW,302,10.5,10.5,21,-99.99,,---,-99.99,VWS V14.01,2013-04-18 08:58:00,
2013-04-18 02:03:00,27.9,-7.0,30.21,NW,323,13.6,13.6,21,-99.99,,---,-99.99,VWS V14.01,2013-04-18 09:03:00,
2013-04-18 02:08:00,28.0,-6.8,30.21,NW,305,11.0,11.0,21,-99.99,,---,-99.99,VWS V14.01,2013-04-18 09:08:00,
2013-04-18 02:13:00,27.9,-7.0,30.21,NW,324,15.4,15.4,21,-99.99,,---,-99.99,VWS V14.01,2013-04-18 09:13:00,
2013-04-18 02:18:00,27.9,-7.0,30.21,NNW,332,8.1,8.1,21,-99.99,,---,-99.99,VWS V14.01,2013-04-18 09:18:00,
2013-04-18 02:23:00,27.9,-7.0,30.21,NW,325,15.4,16.3,21,-99.99,,---,-99.99,VWS V14.01,2013-04-18 09:23:00,
2013-04-18 02:28:00,27.9,-7.0,30.21,NNW,328,10.5,11.0,21,-99.99,,---,-99.99,VWS V14.01,2013-04-18 09:28:00,
2013-04-18 02:33:00,27.7,-7.2,30.21,WNW,301,6.3,6.3,21,-99.99,,---,-99.99,VWS V14.01,2013-04-18 09:33:00,
2013-04-18 02:38:00,27.7,-7.2,30.21,NNW,333,15.0,15.0,21,-99.99,,---,-99.99,VWS V14.01,2013-04-18 09:38:00,
2013-04-18 02:43:00,27.7,-7.2,30.21,NW,324,8.1,9.6,21,-99.99,,---,-99.99,VWS V14.01,2013-04-18 09:43:00,
2013-04-18 02:48:00,27.7,-7.2,30.21,North,353,15.4,15.4,21,-99.99,,---,-99.99,VWS V14.01,2013-04-18 09:48:00,
2013-04-18 02:53:00,27.5,-7.3,30.21,NNW,333,8.7,8.7,21,-99.99,,---,-99.99,VWS V14.01,2013-04-18 09:53:00,
2013-04-18 02:58:00,27.5,-7.3,30.21,NW,323,8.3,8.3,21,-99.99,,---,-99.99,VWS V14.01,2013-04-18 09:58:00,
2013-04-18 03:03:00,27.5,-7.3,30.21,WNW,299,8.1,13.2,21,-99.99,,---,-99.99,VWS V14.01,2013-04-18 10:03:00,
2013-04-18 03:08:00,27.5,-7.3,30.21,WNW,303,13.2,14.5,21,-99.99,,---,-99.99,VWS V14.01,2013-04-18 10:08:00,
2013-04-18 03:13:00,27.5,-7.3,30.21,NW,326,10.5,10.5,21,-99.99,,---,-99.99,VWS V14.01,2013-04-18 10:13:00,
2013-04-18 03:18:00,27.1,-7.6,30.21,NNW,338,15.4,15.4,21,-99.99,,---,-99.99,VWS V14.01,2013-04-18 10:18:00,
2013-04-18 03:23:00,27.1,-7.6,30.21,NW,317,12.8,16.8,21,-99.99,,---,-99.99,VWS V14.01,2013-04-18 10:23:00,
2013-04-18 03:28:00,27.1,-7.6,30.21,NW,317,6.7,12.8,21,-99.99,,---,-99.99,VWS V14.01,2013-04-18 10:28:00,
2013-04-18 03:33:00,27.1,-7.6,30.21,WNW,301,15.0,15.0,21,-99.99,,---,-99.99,VWS V14.01,2013-04-18 10:33:00,
2013-04-18 03:38:00,27.1,-7.6,30.21,NW,318,12.8,12.8,21,-99.99,,---,-99.99,VWS V14.01,2013-04-18 10:38:00,
2013-04-18 03:43:00,27.0,-7.8,30.21,WNW,302,12.8,12.8,21,-99.99,,---,-99.99,VWS V14.01,2013-04-18 10:43:00,
2013-04-18 03:48:00,27.0,-7.8,30.21,NNW,341,10.1,10.1,21,-99.99,,---,-99.99,VWS V14.01,2013-04-18 10:48:00,
2013-04-18 03:53:00,27.0,-7.8,30.21,NW,304,13.2,13.2,21,-99.99,,---,-99.99,VWS V14.01,2013-04-18 10:53:00,
2013-04-18 03:58:00,27.0,-7.8,30.21,NW,322,5.8,10.5,21,-99.99,,---,-99.99,VWS V14.01,2013-04-18 10:58:00,
2013-04-18 04:03:00,27.0,-7.8,30.21,NNW,334,6.3,8.3,21,-99.99,,---,-99.99,VWS V14.01,2013-04-18 11:03:00,
2013-04-18 04:08:00,27.0,-7.8,30.21,North,353,0.0,0.0,21,-99.99,,---,-99.99,VWS V14.01,2013-04-18 11:08:00,
2013-04-18 04:13:00,27.0,-7.8,30.21,NNW,336,0.0,0.0,21,-99.99,,---,-99.99,VWS V14.01,2013-04-18 11:13:00,
2013-04-18 04:18:00,27.0,-7.8,30.21,NW,326,0.0,0.0,21,-99.99,,---,-99.99,VWS V14.01,2013-04-18 11:18:00,
2013-04-18 04:23:00,27.0,-7.8,30.21,NW,325,0.0,0.0,21,-99.99,,---,-99.99,VWS V14.01,2013-04-18 11:23:00,
2013-04-18 04:28:00,26.8,-7.9,30.21,North,357,0.0,0.0,21,-99.99,,---,-99.99,VWS V14.01,2013-04-18 11:28:00,
2013-04-18 04:33:00,26.8,-7.9,30.21,NNE,12,0.0,0.0,21,-99.99,,---,-99.99,VWS V14.01,2013-04-18 11:33:00,
2013-04-18 04:38:00,26.4,-8.2,30.21,North,5,0.0,0.0,21,-99.99,,---,-99.99,VWS V14.01,2013-04-18 11:38:00,
2013-04-18 04:43:00,26.4,-8.2,30.21,North,8,0.0,0.0,21,-99.99,,---,-99.99,VWS V14.01,2013-04-18 11:43:00,
2013-04-18 04:49:00,26.8,-7.9,30.21,North,9,8.3,8.3,21,-99.99,,---,-99.99,VWS V14.01,2013-04-18 11:49:00,
2013-04-18 04:54:00,26.8,-7.9,30.21,North,353,5.8,5.8,21,-99.99,,---,-99.99,VWS V14.01,2013-04-18 11:54:00,
2013-04-18 04:59:00,27.1,-7.6,30.21,North,353,6.3,6.3,21,-99.99,,---,-99.99,VWS V14.01,2013-04-18 11:59:00,
2013-04-18 05:04:00,27.1,-7.6,30.21,North,357,8.1,8.1,21,-99.99,,---,-99.99,VWS V14.01,2013-04-18 12:04:00,
2013-04-18 05:09:00,27.1,-7.6,30.21,North,0,5.4,6.3,21,-99.99,,---,-99.99,VWS V14.01,2013-04-18 12:09:00,
2013-04-18 05:14:00,27.0,-7.8,30.21,NNW,333,0.0,0.0,21,-99.99,,---,-99.99,VWS V14.01,2013-04-18 12:14:00,
2013-04-18 05:19:00,27.7,-7.2,30.21,NNW,340,0.0,0.0,21,-99.99,,---,-99.99,VWS V14.01,2013-04-18 12:19:00,
2013-04-18 05:24:00,27.7,-7.2,30.21,NNW,329,0.0,0.0,21,-99.99,,---,-99.99,VWS V14.01,2013-04-18 12:24:00,
2013-04-18 05:29:00,27.7,-7.2,30.21,NNW,333,0.0,0.0,21,-99.99,,---,-99.99,VWS V14.01,2013-04-18 12:29:00,
2013-04-18 05:34:00,28.0,-6.8,30.21,NW,317,0.0,0.0,21,-99.99,,---,-99.99,VWS V14.01,2013-04-18 12:34:00,
2013-04-18 05:39:00,28.2,-6.7,30.21,NNW,334,0.0,0.0,21,-99.99,,---,-99.99,VWS V14.01,2013-04-18 12:39:00,
2013-04-18 05:44:00,28.2,-6.7,30.21,NNW,327,0.0,0.0,21,-99.99,,---,-99.99,VWS V14.01,2013-04-18 12:44:00,
2013-04-18 05:49:00,28.2,-6.7,30.21,NW,324,0.0,0.0,21,-99.99,,---,-99.99,VWS V14.01,2013-04-18 12:49:00,
2013-04-18 05:54:00,28.2,-6.7,30.21,NW,322,0.0,0.0,21,-99.99,,---,-99.99,VWS V14.01,2013-04-18 12:54:00,
2013-04-18 05:59:00,27.9,-7.0,30.21,NW,304,0.0,0.0,21,-99.99,,---,-99.99,VWS V14.01,2013-04-18 12:59:00,
2013-04-18 06:04:00,28.2,-6.7,30.21,NNW,332,0.0,0.0,21,-99.99,,---,-99.99,VWS V14.01,2013-04-18 13:04:00,
2013-04-18 06:09:00,28.2,-6.7,30.21,NNW,331,0.0,0.0,21,-99.99,,---,-99.99,VWS V14.01,2013-04-18 13:09:00,
2013-04-18 06:14:00,27.9,-7.0,30.21,NW,314,0.0,0.0,21,-99.99,,---,-99.99,VWS V14.01,2013-04-18 13:14:00,
2013-04-18 06:19:00,27.9,-7.0,30.21,NW,321,0.0,0.0,21,-99.99,,---,-99.99,VWS V14.01,2013-04-18 13:19:00,
2013-04-18 06:24:00,28.9,-7.1,30.21,WNW,300,0.0,0.0,20,-99.99,,---,-99.99,VWS V14.01,2013-04-18 13:24:00,
2013-04-18 06:29:00,29.3,-6.8,30.21,NW,321,0.0,0.0,20,-99.99,,---,-99.99,VWS V14.01,2013-04-18 13:29:00,
2013-04-18 06:34:00,29.8,-6.3,30.21,NW,312,0.0,0.0,20,-99.99,,---,-99.99,VWS V14.01,2013-04-18 13:34:00,
2013-04-18 06:39:00,29.8,-6.3,30.21,WNW,300,0.0,0.0,20,-99.99,,---,-99.99,VWS V14.01,2013-04-18 13:39:00,
2013-04-18 06:44:00,31.5,-5.0,30.21,WNW,292,0.0,0.0,20,-99.99,,---,-99.99,VWS V14.01,2013-04-18 13:44:00,
2013-04-18 06:49:00,31.5,-5.0,30.21,NNW,331,0.0,0.0,20,-99.99,,---,-99.99,VWS V14.01,2013-04-18 13:49:00,
2013-04-18 06:54:00,31.8,-4.7,30.21,NNW,330,0.0,0.0,20,-99.99,,---,-99.99,VWS V14.01,2013-04-18 13:54:00,
2013-04-18 06:59:00,31.8,-4.7,30.21,NW,313,0.0,0.0,20,-99.99,,---,-99.99,VWS V14.01,2013-04-18 13:59:00,
2013-04-18 07:04:00,31.8,-4.7,30.21,NW,320,0.0,0.0,20,-99.99,,---,-99.99,VWS V14.01,2013-04-18 14:04:00,
2013-04-18 07:09:00,33.1,-3.6,30.21,NNW,344,0.0,0.0,20,-99.99,,---,-99.99,VWS V14.01,2013-04-18 14:09:00,
2013-04-18 07:14:00,33.4,-3.3,30.21,NNW,330,0.0,0.0,20,-99.99,,---,-99.99,VWS V14.01,2013-04-18 14:14:00,
2013-04-18 07:19:00,33.4,-3.3,30.21,NW,316,0.0,0.0,20,-99.99,,---,-99.99,VWS V14.01,2013-04-18 14:19:00,
2013-04-18 07:24:00,33.4,-3.3,30.21,NW,322,0.0,0.0,20,-99.99,,---,-99.99,VWS V14.01,2013-04-18 14:24:00,
2013-04-18 07:29:00,33.4,-3.3,30.21,NW,305,0.0,0.0,20,-99.99,,---,-99.99,VWS V14.01,2013-04-18 14:29:00,
2013-04-18 07:34:00,34.9,-2.1,30.21,WNW,299,0.0,0.0,20,-99.99,,---,-99.99,VWS V14.01,2013-04-18 14:34:00,
2013-04-18 07:39:00,35.1,-2.0,30.21,WNW,301,0.0,0.0,20,-99.99,,---,-99.99,VWS V14.01,2013-04-18 14:39:00,
2013-04-18 07:44:00,35.2,-1.8,30.21,WNW,303,0.0,0.0,20,-99.99,,---,-99.99,VWS V14.01,2013-04-18 14:44:00,
2013-04-18 07:49:00,35.4,-1.6,30.21,NW,324,0.0,0.0,20,-99.99,,---,-99.99,VWS V14.01,2013-04-18 14:49:00,
2013-04-18 07:54:00,35.8,-2.4,30.21,WNW,295,0.0,0.0,19,-99.99,,---,-99.99,VWS V14.01,2013-04-18 14:54:00,
2013-04-18 07:59:00,36.1,-2.1,30.21,WNW,291,0.0,0.0,19,-99.99,,---,-99.99,VWS V14.01,2013-04-18 14:59:00,
2013-04-18 08:04:00,36.1,-2.1,30.21,NW,306,0.0,0.0,19,-99.99,,---,-99.99,VWS V14.01,2013-04-18 15:04:00,
2013-04-18 08:09:00,36.1,-2.1,30.21,NW,315,0.0,0.0,19,-99.99,,---,-99.99,VWS V14.01,2013-04-18 15:09:00,
2013-04-18 08:14:00,36.3,-2.0,30.21,NW,318,0.0,0.0,19,-99.99,,---,-99.99,VWS V14.01,2013-04-18 15:14:00,
2013-04-18 08:19:00,36.5,-1.8,30.21,West,278,0.0,0.0,19,-99.99,,---,-99.99,VWS V14.01,2013-04-18 15:19:00,
2013-04-18 08:24:00,36.9,-1.5,30.21,NW,326,0.0,0.0,19,-99.99,,---,-99.99,VWS V14.01,2013-04-18 15:24:00,
2013-04-18 08:29:00,36.9,-1.5,30.21,WNW,300,0.0,0.0,19,-99.99,,---,-99.99,VWS V14.01,2013-04-18 15:29:00,
2013-04-18 08:34:00,36.5,-1.8,30.21,NW,326,0.0,4.9,19,-99.99,,---,-99.99,VWS V14.01,2013-04-18 15:34:00,
2013-04-18 08:39:00,36.5,-1.8,30.21,West,281,0.0,0.0,19,-99.99,,---,-99.99,VWS V14.01,2013-04-18 15:39:00,
2013-04-18 08:44:00,37.0,-1.4,30.21,West,273,0.0,0.0,19,-99.99,,---,-99.99,VWS V14.01,2013-04-18 15:44:00,
2013-04-18 08:49:00,37.2,-1.2,30.21,WNW,284,0.0,0.0,19,-99.99,,---,-99.99,VWS V14.01,2013-04-18 15:49:00,
2013-04-18 08:54:00,37.6,1.2,30.21,NNW,339,0.0,0.0,21,-99.99,,---,-99.99,VWS V14.01,2013-04-18 15:54:00,
2013-04-18 08:59:00,37.6,1.2,30.21,WNW,294,0.0,0.0,21,-99.99,,---,-99.99,VWS V14.01,2013-04-18 15:59:00,
2013-04-18 09:04:00,38.1,1.6,30.33,West,267,0.0,0.0,21,-99.99,,---,-99.99,VWS V14.01,2013-04-18 16:04:00,
2013-04-18 09:09:00,37.8,1.4,30.33,West,267,0.0,0.0,21,-99.99,,---,-99.99,VWS V14.01,2013-04-18 16:09:00,
2013-04-18 09:14:00,37.6,1.2,30.33,West,277,0.0,0.0,21,-99.99,,---,-99.99,VWS V14.01,2013-04-18 16:14:00,
2013-04-18 09:20:00,37.6,1.2,30.33,NW,310,0.0,0.0,21,-99.99,,---,-99.99,VWS V14.01,2013-04-18 16:20:00,
2013-04-18 09:25:00,37.6,1.2,30.33,WNW,284,0.0,0.0,21,-99.99,,---,-99.99,VWS V14.01,2013-04-18 16:25:00,
2013-04-18 09:30:00,38.7,2.1,30.33,NNW,341,0.0,0.0,21,-99.99,,---,-99.99,VWS V14.01,2013-04-18 16:30:00,
2013-04-18 09:35:00,38.8,2.3,30.33,North,353,0.0,0.0,21,-99.99,,---,-99.99,VWS V14.01,2013-04-18 16:35:00,
2013-04-18 09:40:00,38.8,2.3,30.33,WNW,303,0.0,0.0,21,-99.99,,---,-99.99,VWS V14.01,2013-04-18 16:40:00,
2013-04-18 09:45:00,38.8,2.3,30.33,West,274,0.0,0.0,21,-99.99,,---,-99.99,VWS V14.01,2013-04-18 16:45:00,
2013-04-18 09:50:00,38.8,2.3,30.33,West,280,0.0,0.0,21,-99.99,,---,-99.99,VWS V14.01,2013-04-18 16:50:00,
2013-04-18 09:55:00,40.1,3.3,30.33,WNW,283,0.0,0.0,21,-99.99,,---,-99.99,VWS V14.01,2013-04-18 16:55:00,
2013-04-18 10:00:00,40.5,3.6,30.33,NW,324,0.0,0.0,21,-99.99,,---,-99.99,VWS V14.01,2013-04-18 17:00:00,
2013-04-18 10:05:00,40.5,3.6,30.33,WNW,291,0.0,0.0,21,-99.99,,---,-99.99,VWS V14.01,2013-04-18 17:05:00,
2013-04-18 10:10:00,40.5,3.6,30.33,WNW,293,0.0,0.0,21,-99.99,,---,-99.99,VWS V14.01,2013-04-18 17:10:00,
2013-04-18 10:15:00,41.0,4.1,30.33,WSW,255,0.0,0.0,21,-99.99,,---,-99.99,VWS V14.01,2013-04-18 17:15:00,
2013-04-18 10:20:00,41.2,4.2,30.33,West,274,0.0,0.0,21,-99.99,,---,-99.99,VWS V14.01,2013-04-18 17:20:00,
2013-04-18 10:25:00,41.2,4.2,30.33,SSW,207,0.0,0.0,21,-99.99,,---,-99.99,VWS V14.01,2013-04-18 17:25:00,
2013-04-18 10:30:00,42.8,4.5,30.33,West,273,0.0,0.0,20,-99.99,,---,-99.99,VWS V14.01,2013-04-18 17:30:00,
2013-04-18 10:35:00,42.8,4.5,30.33,SSE,156,0.0,0.0,20,-99.99,,---,-99.99,VWS V14.01,2013-04-18 17:35:00,
2013-04-18 10:40:00,43.5,5.1,30.33,WSW,254,0.0,0.0,20,-99.99,,---,-99.99,VWS V14.01,2013-04-18 17:40:00,
2013-04-18 10:45:00,42.4,5.3,30.33,West,267,0.0,0.0,21,-99.99,,---,-99.99,VWS V14.01,2013-04-18 17:45:00,
2013-04-18 10:50:00,42.4,5.3,30.33,West,272,0.0,0.0,21,-99.99,,---,-99.99,VWS V14.01,2013-04-18 17:50:00,
2013-04-18 10:55:00,42.3,5.1,30.33,WSW,248,0.0,0.0,21,-99.99,,---,-99.99,VWS V14.01,2013-04-18 17:55:00,
2013-04-18 11:00:00,42.3,5.1,30.33,West,267,0.0,0.0,21,-99.99,,---,-99.99,VWS V14.01,2013-04-18 18:00:00,
2013-04-18 11:05:00,42.6,5.4,30.33,WSW,256,0.0,0.0,21,-99.99,,---,-99.99,VWS V14.01,2013-04-18 18:05:00,
2013-04-18 11:10:00,42.1,5.0,30.33,West,259,0.0,0.0,21,-99.99,,---,-99.99,VWS V14.01,2013-04-18 18:10:00,
2013-04-18 11:15:00,42.1,5.0,30.33,WSW,241,0.0,0.0,21,-99.99,,---,-99.99,VWS V14.01,2013-04-18 18:15:00,
2013-04-18 11:20:00,42.1,5.0,30.33,West,259,0.0,0.0,21,-99.99,,---,-99.99,VWS V14.01,2013-04-18 18:20:00,
2013-04-18 11:25:00,42.6,5.4,30.33,West,265,0.0,0.0,21,-99.99,,---,-99.99,VWS V14.01,2013-04-18 18:25:00,
2013-04-18 11:30:00,43.0,4.7,30.33,WSW,250,0.0,0.0,20,-99.99,,---,-99.99,VWS V14.01,2013-04-18 18:30:00,
2013-04-18 11:35:00,43.0,4.7,30.33,North,357,0.0,0.0,20,-99.99,,---,-99.99,VWS V14.01,2013-04-18 18:35:00,
2013-04-18 11:40:00,44.1,5.6,30.33,West,260,0.0,0.0,20,-99.99,,---,-99.99,VWS V14.01,2013-04-18 18:40:00,
2013-04-18 11:45:00,44.1,5.6,30.33,WSW,240,0.0,0.0,20,-99.99,,---,-99.99,VWS V14.01,2013-04-18 18:45:00,
2013-04-18 11:50:00,45.5,6.8,30.33,WSW,246,0.0,0.0,20,-99.99,,---,-99.99,VWS V14.01,2013-04-18 18:50:00,
2013-04-18 11:55:00,46.2,7.4,30.33,WNW,287,0.0,0.0,20,-99.99,,---,-99.99,VWS V14.01,2013-04-18 18:55:00,
2013-04-18 12:00:00,46.4,6.4,30.33,SE,144,0.0,0.0,19,-99.99,,---,-99.99,VWS V14.01,2013-04-18 19:00:00,
2013-04-18 12:05:00,46.4,6.4,30.33,NNW,344,6.7,6.7,19,-99.99,,---,-99.99,VWS V14.01,2013-04-18 19:05:00,
2013-04-18 12:10:00,46.4,6.4,30.33,South,173,0.0,0.0,19,-99.99,,---,-99.99,VWS V14.01,2013-04-18 19:10:00,
2013-04-18 12:15:00,47.3,7.1,30.33,WSW,239,5.4,5.4,19,-99.99,,---,-99.99,VWS V14.01,2013-04-18 19:15:00,
2013-04-18 12:20:00,47.3,7.1,30.33,SW,226,0.0,0.0,19,-99.99,,---,-99.99,VWS V14.01,2013-04-18 19:20:00,
2013-04-18 12:25:00,47.3,7.1,30.33,West,274,0.0,0.0,19,-99.99,,---,-99.99,VWS V14.01,2013-04-18 19:25:00,
2013-04-18 12:30:00,47.3,7.1,30.33,West,276,0.0,0.0,19,-99.99,,---,-99.99,VWS V14.01,2013-04-18 19:30:00,
2013-04-18 12:35:00,49.3,8.8,30.33,NNE,31,0.0,0.0,19,-99.99,,---,-99.99,VWS V14.01,2013-04-18 19:35:00,
2013-04-18 12:40:00,50.5,9.8,30.33,East,93,0.0,0.0,19,-99.99,,---,-99.99,VWS V14.01,2013-04-18 19:40:00,
2013-04-18 12:45:00,51.1,10.3,30.33,ENE,68,0.0,0.0,19,-99.99,,---,-99.99,VWS V14.01,2013-04-18 19:45:00,
2013-04-18 12:50:00,51.1,10.3,30.33,ESE,111,0.0,0.0,19,-99.99,,---,-99.99,VWS V14.01,2013-04-18 19:50:00,
2013-04-18 12:55:00,51.1,10.3,30.33,SE,135,0.0,0.0,19,-99.99,,---,-99.99,VWS V14.01,2013-04-18 19:55:00,
2013-04-18 13:00:00,52.7,10.4,30.33,East,93,0.0,0.0,18,-99.99,,---,-99.99,VWS V14.01,2013-04-18 20:00:00,
2013-04-18 13:05:00,52.7,10.4,30.33,East,98,0.0,0.0,18,-99.99,,---,-99.99,VWS V14.01,2013-04-18 20:05:00,
2013-04-18 13:10:00,52.7,10.4,30.33,ENE,77,0.0,0.0,18,-99.99,,---,-99.99,VWS V14.01,2013-04-18 20:10:00,
2013-04-18 13:15:00,52.3,10.1,30.33,SE,129,0.0,0.0,18,-99.99,,---,-99.99,VWS V14.01,2013-04-18 20:15:00,
2013-04-18 13:20:00,52.3,10.1,30.33,ESE,106,0.0,0.0,18,-99.99,,---,-99.99,VWS V14.01,2013-04-18 20:20:00,
2013-04-18 13:25:00,53.4,11.0,30.33,ESE,102,0.0,0.0,18,-99.99,,---,-99.99,VWS V14.01,2013-04-18 20:25:00,
2013-04-18 13:30:00,53.4,11.0,30.33,NW,308,0.0,0.0,18,-99.99,,---,-99.99,VWS V14.01,2013-04-18 20:30:00,
2013-04-18 13:35:00,52.7,10.4,30.33,South,172,0.0,0.0,18,-99.99,,---,-99.99,VWS V14.01,2013-04-18 20:35:00,
2013-04-18 13:41:00,52.7,10.4,30.33,SE,124,0.0,0.0,18,-99.99,,---,-99.99,VWS V14.01,2013-04-18 20:41:00,
2013-04-18 13:46:00,54.5,11.9,30.33,ESE,104,0.0,0.0,18,-99.99,,---,-99.99,VWS V14.01,2013-04-18 20:46:00,
2013-04-18 13:51:00,54.7,12.0,30.33,NNE,19,0.0,0.0,18,-99.99,,---,-99.99,VWS V14.01,2013-04-18 20:51:00,
2013-04-18 13:56:00,54.1,11.6,30.33,NNW,335,0.0,0.0,18,-99.99,,---,-99.99,VWS V14.01,2013-04-18 20:56:00,
2013-04-18 14:01:00,54.1,11.6,30.33,NNE,31,0.0,0.0,18,-99.99,,---,-99.99,VWS V14.01,2013-04-18 21:01:00,
2013-04-18 14:06:00,54.1,11.6,30.33,ESE,104,0.0,0.0,18,-99.99,,---,-99.99,VWS V14.01,2013-04-18 21:06:00,
2013-04-18 14:11:00,55.2,12.5,30.33,ENE,60,0.0,0.0,18,-99.99,,---,-99.99,VWS V14.01,2013-04-18 21:11:00,
2013-04-18 14:16:00,55.2,12.5,30.33,SE,137,0.0,0.0,18,-99.99,,---,-99.99,VWS V14.01,2013-04-18 21:16:00,
2013-04-18 14:21:00,55.2,12.5,30.33,East,100,0.0,0.0,18,-99.99,,---,-99.99,VWS V14.01,2013-04-18 21:21:00,
2013-04-18 14:26:00,55.2,12.5,30.33,East,81,0.0,0.0,18,-99.99,,---,-99.99,VWS V14.01,2013-04-18 21:26:00,
2013-04-18 14:31:00,55.2,12.5,30.33,ESE,104,0.0,0.0,18,-99.99,,---,-99.99,VWS V14.01,2013-04-18 21:31:00,
2013-04-18 14:36:00,55.6,11.5,30.33,SE,139,0.0,0.0,17,-99.99,,---,-99.99,VWS V14.01,2013-04-18 21:36:00,
2013-04-18 14:41:00,55.8,11.6,30.33,NNW,328,0.0,0.0,17,-99.99,,---,-99.99,VWS V14.01,2013-04-18 21:41:00,
2013-04-18 14:46:00,55.8,11.6,30.33,WSW,251,0.0,0.0,17,-99.99,,---,-99.99,VWS V14.01,2013-04-18 21:46:00,
2013-04-18 14:51:00,55.8,11.6,30.33,SSE,155,0.0,0.0,17,-99.99,,---,-99.99,VWS V14.01,2013-04-18 21:51:00,
2013-04-18 14:56:00,53.8,11.3,30.33,WSW,258,0.0,0.0,18,-99.99,,---,-99.99,VWS V14.01,2013-04-18 21:56:00,
2013-04-18 15:01:00,54.3,11.7,30.33,ESE,112,0.0,0.0,18,-99.99,,---,-99.99,VWS V14.01,2013-04-18 22:01:00,
2013-04-18 15:06:00,54.3,11.7,30.33,South,189,0.0,0.0,18,-99.99,,---,-99.99,VWS V14.01,2013-04-18 22:06:00,
2013-04-18 15:11:00,54.3,11.7,30.33,WSW,258,0.0,0.0,18,-99.99,,---,-99.99,VWS V14.01,2013-04-18 22:11:00,
2013-04-18 15:17:00,52.0,9.8,30.33,South,176,0.0,0.0,18,-99.99,,---,-99.99,VWS V14.01,2013-04-18 22:17:00,
2013-04-18 15:22:00,53.1,10.7,30.33,SSE,162,4.5,4.5,18,-99.99,,---,-99.99,VWS V14.01,2013-04-18 22:22:00,
2013-04-18 15:27:00,52.7,10.4,30.33,ESE,106,11.0,11.0,18,-99.99,,---,-99.99,VWS V14.01,2013-04-18 22:27:00,
2013-04-18 15:32:00,52.7,10.4,30.33,SSE,152,0.0,0.0,18,-99.99,,---,-99.99,VWS V14.01,2013-04-18 22:32:00,
2013-04-18 15:37:00,53.1,10.7,30.33,SSE,151,0.0,0.0,18,-99.99,,---,-99.99,VWS V14.01,2013-04-18 22:37:00,
2013-04-18 15:42:00,53.1,10.7,30.33,SSE,164,0.0,5.4,18,-99.99,,---,-99.99,VWS V14.01,2013-04-18 22:42:00,
2013-04-18 15:47:00,52.9,10.6,30.33,SSW,207,0.0,0.0,18,-99.99,,---,-99.99,VWS V14.01,2013-04-18 22:47:00,
2013-04-18 15:52:00,52.3,10.1,30.33,South,178,0.0,0.0,18,-99.99,,---,-99.99,VWS V14.01,2013-04-18 22:52:00,
2013-04-18 15:57:00,52.2,10.0,30.33,SSE,159,0.0,0.0,18,-99.99,,---,-99.99,VWS V14.01,2013-04-18 22:57:00,
2013-04-18 16:02:00,52.2,10.0,30.33,South,187,0.0,0.0,18,-99.99,,---,-99.99,VWS V14.01,2013-04-18 23:02:00,
2013-04-18 16:07:00,52.5,10.2,30.33,SE,141,0.0,0.0,18,-99.99,,---,-99.99,VWS V14.01,2013-04-18 23:07:00,
2013-04-18 16:12:00,52.5,10.2,30.33,SSE,162,0.0,0.0,18,-99.99,,---,-99.99,VWS V14.01,2013-04-18 23:12:00,
2013-04-18 16:17:00,52.3,10.1,30.33,SE,146,0.0,0.0,18,-99.99,,---,-99.99,VWS V14.01,2013-04-18 23:17:00,
2013-04-18 16:22:00,52.3,10.1,30.33,ESE,119,0.0,0.0,18,-99.99,,---,-99.99,VWS V14.01,2013-04-18 23:22:00,
2013-04-18 16:27:00,52.3,10.1,30.33,SSE,162,0.0,0.0,18,-99.99,,---,-99.99,VWS V14.01,2013-04-18 23:27:00,
2013-04-18 16:32:00,50.9,10.1,30.33,SSE,150,0.0,0.0,19,-99.99,,---,-99.99,VWS V14.01,2013-04-18 23:32:00,
2013-04-18 16:37:00,50.9,10.1,30.33,SSW,203,0.0,0.0,19,-99.99,,---,-99.99,VWS V14.01,2013-04-18 23:37:00,
2013-04-18 16:42:00,50.9,10.1,30.33,SE,126,6.3,6.3,19,-99.99,,---,-99.99,VWS V14.01,2013-04-18 23:42:00,
2013-04-18 16:47:00,50.9,10.1,30.33,South,169,10.5,10.5,19,-99.99,,---,-99.99,VWS V14.01,2013-04-18 23:47:00,
2013-04-18 16:52:00,50.9,10.1,30.33,SSE,159,8.7,8.7,19,-99.99,,---,-99.99,VWS V14.01,2013-04-18 23:52:00,
2013-04-18 16:57:00,49.8,9.2,30.33,SE,130,9.2,9.2,19,-99.99,,---,-99.99,VWS V14.01,2013-04-18 23:57:00,
2013-04-18 17:02:00,49.6,9.1,30.33,SSE,156,5.8,5.8,19,-99.99,,---,-99.99,VWS V14.01,2013-04-19 00:02:00,
2013-04-18 17:07:00,49.6,9.1,30.33,SSE,162,3.6,3.6,19,-99.99,,---,-99.99,VWS V14.01,2013-04-19 00:07:00,
2013-04-18 17:12:00,49.6,9.1,30.33,ESE,108,5.8,5.8,19,-99.99,,---,-99.99,VWS V14.01,2013-04-19 00:12:00,
2013-04-18 17:17:00,48.6,8.2,30.33,SE,136,8.3,8.3,19,-99.99,,---,-99.99,VWS V14.01,2013-04-19 00:17:00,
2013-04-18 17:22:00,48.6,8.2,30.33,SSE,161,8.3,11.0,19,-99.99,,---,-99.99,VWS V14.01,2013-04-19 00:22:00,
2013-04-18 17:27:00,48.6,8.2,30.33,South,176,8.3,8.3,19,-99.99,,---,-99.99,VWS V14.01,2013-04-19 00:27:00,
2013-04-18 17:32:00,47.5,7.3,30.33,SSE,159,8.1,10.1,19,-99.99,,---,-99.99,VWS V14.01,2013-04-19 00:32:00,
2013-04-18 17:37:00,47.5,7.3,30.33,SSE,153,10.1,10.1,19,-99.99,,---,-99.99,VWS V14.01,2013-04-19 00:37:00,
2013-04-18 17:42:00,46.6,6.5,30.33,SE,143,3.1,3.1,19,-99.99,,---,-99.99,VWS V14.01,2013-04-19 00:42:00,
2013-04-18 17:47:00,46.6,6.5,30.33,South,170,10.1,12.8,19,-99.99,,---,-99.99,VWS V14.01,2013-04-19 00:47:00,
2013-04-18 17:52:00,46.6,6.5,30.33,SSE,152,8.3,10.1,19,-99.99,,---,-99.99,VWS V14.01,2013-04-19 00:52:00,
2013-04-18 17:57:00,45.7,6.9,30.33,South,185,0.0,0.0,20,-99.99,,---,-99.99,VWS V14.01,2013-04-19 00:57:00,
2013-04-18 18:03:00,45.1,6.5,30.33,SSE,156,0.0,0.0,20,-99.99,,---,-99.99,VWS V14.01,2013-04-19 01:03:00,
2013-04-18 18:08:00,44.8,6.2,30.33,South,183,0.0,0.0,20,-99.99,,---,-99.99,VWS V14.01,2013-04-19 01:08:00,
2013-04-18 18:13:00,44.6,6.0,30.33,South,191,0.0,0.0,20,-99.99,,---,-99.99,VWS V14.01,2013-04-19 01:13:00,
2013-04-18 18:18:00,43.9,5.4,30.33,South,177,0.0,0.0,20,-99.99,,---,-99.99,VWS V14.01,2013-04-19 01:18:00,
2013-04-18 18:23:00,43.9,5.4,30.33,South,169,0.0,0.0,20,-99.99,,---,-99.99,VWS V14.01,2013-04-19 01:23:00,
2013-04-18 18:28:00,43.0,4.7,30.33,SSE,159,0.0,0.0,20,-99.99,,---,-99.99,VWS V14.01,2013-04-19 01:28:00,
2013-04-18 18:33:00,42.8,4.5,30.33,SSE,161,0.0,0.0,20,-99.99,,---,-99.99,VWS V14.01,2013-04-19 01:33:00,
2013-04-18 18:38:00,42.6,5.4,30.33,SSE,147,0.0,0.0,21,-99.99,,---,-99.99,VWS V14.01,2013-04-19 01:38:00,
2013-04-18 18:43:00,42.6,5.4,30.33,SSE,160,0.0,0.0,21,-99.99,,---,-99.99,VWS V14.01,2013-04-19 01:43:00,
2013-04-18 18:48:00,41.5,4.5,30.33,SSE,166,0.0,0.0,21,-99.99,,---,-99.99,VWS V14.01,2013-04-19 01:48:00,
2013-04-18 18:53:00,41.0,4.1,30.33,SSE,162,0.0,0.0,21,-99.99,,---,-99.99,VWS V14.01,2013-04-19 01:53:00,
2013-04-18 18:58:00,40.5,3.6,30.33,South,185,0.0,0.0,21,-99.99,,---,-99.99,VWS V14.01,2013-04-19 01:58:00,
2013-04-18 19:03:00,40.5,3.6,30.33,SSE,163,0.0,0.0,21,-99.99,,---,-99.99,VWS V14.01,2013-04-19 02:03:00,
2013-04-18 19:08:00,40.5,3.6,30.33,SSE,166,0.0,0.0,21,-99.99,,---,-99.99,VWS V14.01,2013-04-19 02:08:00,
2013-04-18 19:13:00,40.5,3.6,30.33,SSE,168,0.0,0.0,21,-99.99,,---,-99.99,VWS V14.01,2013-04-19 02:13:00,
2013-04-18 19:18:00,38.3,1.8,30.33,SSE,165,0.0,0.0,21,-99.99,,---,-99.99,VWS V14.01,2013-04-19 02:18:00,
2013-04-18 19:23:00,37.9,1.5,30.33,SSE,166,0.0,0.0,21,-99.99,,---,-99.99,VWS V14.01,2013-04-19 02:23:00,
2013-04-18 19:28:00,37.9,1.5,30.33,SSE,167,0.0,0.0,21,-99.99,,---,-99.99,VWS V14.01,2013-04-19 02:28:00,
2013-04-18 19:33:00,37.0,-1.4,30.33,SSE,167,0.0,0.0,19,-99.99,,---,-99.99,VWS V14.01,2013-04-19 02:33:00,
2013-04-18 19:38:00,36.9,-1.5,30.33,SSE,167,0.0,0.0,19,-99.99,,---,-99.99,VWS V14.01,2013-04-19 02:38:00,
2013-04-18 19:43:00,36.9,-1.5,30.33,SSE,167,0.0,0.0,19,-99.99,,---,-99.99,VWS V14.01,2013-04-19 02:43:00,
2013-04-18 19:48:00,37.0,-1.4,30.33,SSE,166,0.0,0.0,19,-99.99,,---,-99.99,VWS V14.01,2013-04-19 02:48:00,
2013-04-18 19:53:00,37.0,-1.4,30.33,NE,48,0.0,0.0,19,-99.99,,---,-99.99,VWS V14.01,2013-04-19 02:53:00,
2013-04-18 19:58:00,37.0,-1.4,30.33,NE,47,0.0,0.0,19,-99.99,,---,-99.99,VWS V14.01,2013-04-19 02:58:00,
2013-04-18 20:03:00,36.5,-1.8,30.33,NE,47,0.0,0.0,19,-99.99,,---,-99.99,VWS V14.01,2013-04-19 03:03:00,
2013-04-18 20:08:00,36.5,-1.8,30.33,NE,47,0.0,0.0,19,-99.99,,---,-99.99,VWS V14.01,2013-04-19 03:08:00,
2013-04-18 20:13:00,36.7,-1.7,30.33,NE,47,0.0,0.0,19,-99.99,,---,-99.99,VWS V14.01,2013-04-19 03:13:00,
2013-04-18 20:18:00,36.7,-1.7,30.33,NE,47,0.0,0.0,19,-99.99,,---,-99.99,VWS V14.01,2013-04-19 03:18:00,
2013-04-18 20:23:00,36.0,-2.3,30.33,NE,47,0.0,0.0,19,-99.99,,---,-99.99,VWS V14.01,2013-04-19 03:23:00,
2013-04-18 20:28:00,35.8,-2.4,30.33,NNW,335,0.0,0.0,19,-99.99,,---,-99.99,VWS V14.01,2013-04-19 03:28:00,
2013-04-18 20:33:00,35.8,-2.4,30.33,NW,324,0.0,0.0,19,-99.99,,---,-99.99,VWS V14.01,2013-04-19 03:33:00,
2013-04-18 20:38:00,35.8,-2.4,30.33,NW,310,0.0,0.0,19,-99.99,,---,-99.99,VWS V14.01,2013-04-19 03:38:00,
2013-04-18 20:43:00,35.8,-2.4,30.33,NW,311,0.0,0.0,19,-99.99,,---,-99.99,VWS V14.01,2013-04-19 03:43:00,
2013-04-18 20:48:00,36.1,-2.1,30.33,WNW,292,0.0,0.0,19,-99.99,,---,-99.99,VWS V14.01,2013-04-19 03:48:00,
2013-04-18 20:53:00,36.7,-1.7,30.33,West,264,0.0,0.0,19,-99.99,,---,-99.99,VWS V14.01,2013-04-19 03:53:00,
2013-04-18 20:58:00,36.9,-1.5,30.33,WSW,249,0.0,0.0,19,-99.99,,---,-99.99,VWS V14.01,2013-04-19 03:58:00,
2013-04-18 21:01:00,36.9,-1.5,30.33,WSW,248,0.0,0.0,19,-99.99,,---,-99.99,VWS V14.01,2013-04-19 04:01:00,
2013-04-18 21:02:00,36.9,-1.5,30.33,WSW,241,0.0,0.0,19,-99.99,,---,-99.99,VWS V14.01,2013-04-19 04:02:00,
2013-04-18 21:07:00,36.9,-1.5,30.33,WSW,246,0.0,0.0,19,-99.99,,---,-99.99,VWS V14.01,2013-04-19 04:07:00,
2013-04-18 21:12:00,36.7,-1.7,30.33,WSW,242,0.0,0.0,19,-99.99,,---,-99.99,VWS V14.01,2013-04-19 04:12:00,
2013-04-18 21:17:00,36.5,-1.8,30.33,WSW,244,0.0,0.0,19,-99.99,,---,-99.99,VWS V14.01,2013-04-19 04:17:00,
2013-04-18 21:22:00,36.5,-1.8,30.33,WSW,244,0.0,0.0,19,-99.99,,---,-99.99,VWS V14.01,2013-04-19 04:22:00,
2013-04-18 21:27:00,36.5,-1.8,30.33,WSW,248,0.0,0.0,19,-99.99,,---,-99.99,VWS V14.01,2013-04-19 04:27:00,
2013-04-18 21:32:00,36.5,-1.8,30.33,WSW,254,0.0,0.0,19,-99.99,,---,-99.99,VWS V14.01,2013-04-19 04:32:00,
2013-04-18 21:37:00,36.1,-2.1,30.33,West,267,0.0,0.0,19,-99.99,,---,-99.99,VWS V14.01,2013-04-19 04:37:00,
2013-04-18 21:42:00,36.0,-2.3,30.33,West,264,0.0,0.0,19,-99.99,,---,-99.99,VWS V14.01,2013-04-19 04:42:00,
2013-04-18 21:47:00,36.0,-2.3,30.33,West,273,0.0,0.0,19,-99.99,,---,-99.99,VWS V14.01,2013-04-19 04:47:00,
2013-04-18 21:52:00,35.6,-2.6,30.33,West,268,0.0,0.0,19,-99.99,,---,-99.99,VWS V14.01,2013-04-19 04:52:00,
2013-04-18 21:57:00,35.6,-2.6,30.33,West,272,0.0,0.0,19,-99.99,,---,-99.99,VWS V14.01,2013-04-19 04:57:00,
2013-04-18 22:02:00,35.8,-2.4,30.33,West,278,0.0,0.0,19,-99.99,,---,-99.99,VWS V14.01,2013-04-19 05:02:00,
2013-04-18 22:07:00,35.8,-2.4,30.33,West,272,0.0,0.0,19,-99.99,,---,-99.99,VWS V14.01,2013-04-19 05:07:00,
2013-04-18 22:12:00,36.0,-2.3,30.33,West,278,0.0,0.0,19,-99.99,,---,-99.99,VWS V14.01,2013-04-19 05:12:00,
2013-04-18 22:18:00,36.0,-2.3,30.33,West,277,0.0,0.0,19,-99.99,,---,-99.99,VWS V14.01,2013-04-19 05:18:00,
2013-04-18 22:23:00,35.8,-2.4,30.33,West,271,0.0,0.0,19,-99.99,,---,-99.99,VWS V14.01,2013-04-19 05:23:00,
2013-04-18 22:28:00,35.8,-2.4,30.33,West,272,0.0,0.0,19,-99.99,,---,-99.99,VWS V14.01,2013-04-19 05:28:00,
2013-04-18 22:33:00,35.6,-2.6,30.33,West,268,0.0,0.0,19,-99.99,,---,-99.99,VWS V14.01,2013-04-19 05:33:00,
2013-04-18 22:38:00,35.6,-2.6,30.33,West,268,0.0,0.0,19,-99.99,,---,-99.99,VWS V14.01,2013-04-19 05:38:00,
2013-04-18 22:43:00,35.6,-2.6,30.33,West,272,0.0,0.0,19,-99.99,,---,-99.99,VWS V14.01,2013-04-19 05:43:00,
2013-04-18 22:48:00,35.6,-2.6,30.33,West,266,0.0,0.0,19,-99.99,,---,-99.99,VWS V14.01,2013-04-19 05:48:00,
2013-04-18 22:53:00,35.6,-2.6,30.33,West,269,0.0,0.0,19,-99.99,,---,-99.99,VWS V14.01,2013-04-19 05:53:00,
2013-04-18 22:58:00,35.6,-2.6,30.33,West,275,0.0,0.0,19,-99.99,,---,-99.99,VWS V14.01,2013-04-19 05:58:00,
2013-04-18 23:03:00,35.6,-2.6,30.36,West,274,0.0,0.0,19,-99.99,,---,-99.99,VWS V14.01,2013-04-19 06:03:00,
2013-04-18 23:08:00,35.6,-2.6,30.36,West,277,0.0,0.0,19,-99.99,,---,-99.99,VWS V14.01,2013-04-19 06:08:00,
2013-04-18 23:13:00,35.4,-1.6,30.36,WNW,287,0.0,0.0,20,-99.99,,---,-99.99,VWS V14.01,2013-04-19 06:13:00,
2013-04-18 23:18:00,35.4,-1.6,30.36,WNW,288,0.0,0.0,20,-99.99,,---,-99.99,VWS V14.01,2013-04-19 06:18:00,
2013-04-18 23:23:00,35.4,-1.6,30.36,WNW,283,0.0,0.0,20,-99.99,,---,-99.99,VWS V14.01,2013-04-19 06:23:00,
2013-04-18 23:28:00,35.2,-1.8,30.36,WNW,283,0.0,0.0,20,-99.99,,---,-99.99,VWS V14.01,2013-04-19 06:28:00,
2013-04-18 23:33:00,35.2,-1.8,30.36,WNW,292,0.0,0.0,20,-99.99,,---,-99.99,VWS V14.01,2013-04-19 06:33:00,
2013-04-18 23:38:00,35.2,-1.8,30.36,WNW,287,0.0,0.0,20,-99.99,,---,-99.99,VWS V14.01,2013-04-19 06:38:00,
2013-04-18 23:43:00,35.4,-1.6,30.36,WNW,290,13.2,13.2,20,-99.99,,---,-99.99,VWS V14.01,2013-04-19 06:43:00,
2013-04-18 23:48:00,36.0,-2.3,30.36,West,279,12.8,13.2,19,-99.99,,---,-99.99,VWS V14.01,2013-04-19 06:48:00,
2013-04-18 23:53:00,36.0,-2.3,30.36,WNW,286,12.3,13.2,19,-99.99,,---,-99.99,VWS V14.01,2013-04-19 06:53:00,
2013-04-18 23:58:00,36.3,-2.0,30.36,WNW,291,11.0,11.0,19,-99.99,,---,-99.99,VWS V14.01,2013-04-19 06:58:00,